Time;durP1;ratioP1;P1;durP2;ratioP2;P2;SDS_P1;SDS_P2;PMS_P1;PMS_P2;Temp;Humidity;BMP_temperature;BMP_pressure;BME280_temperature;BME280_humidity;BME280_pressure;Samples;Min_cycle;Max_cycle;Signal;HPM_P1;HPM_P2
2022/07/06 00:01:45;;;;;;;3.83;2.03;;;;;;;18.95;50.32;101021.47;4929157;28;20083;-76
2022/07/06 00:04:12;;;;;;;2.88;1.88;;;;;;;19.01;50.17;101034.47;4928742;28;20052;-74
2022/07/06 00:06:39;;;;;;;4.53;2.63;;;;;;;18.98;50.55;101036.50;4925927;28;20047;-76
2022/07/06 00:09:06;;;;;;;4.65;2.10;;;;;;;18.98;50.45;101040.06;4928131;28;20069;-75
2022/07/06 00:11:33;;;;;;;5.10;2.40;;;;;;;18.96;50.65;101043.81;4926788;28;20050;-76
2022/07/06 00:14:00;;;;;;;4.55;2.10;;;;;;;18.94;50.89;101043.91;4931760;28;20614;-73
2022/07/06 00:16:26;;;;;;;3.00;2.38;;;;;;;18.72;51.05;101015.09;4930873;28;20170;-74
2022/07/06 00:18:53;;;;;;;7.13;2.30;;;;;;;18.87;51.39;101054.25;4932685;28;20132;-75
2022/07/06 00:21:20;;;;;;;3.58;2.53;;;;;;;18.85;51.52;101041.91;4931669;28;20128;-75
2022/07/06 00:23:46;;;;;;;5.80;2.47;;;;;;;18.69;51.55;101022.50;4931616;28;20081;-75
2022/07/06 00:26:13;;;;;;;6.43;2.70;;;;;;;18.80;51.97;101046.72;4932533;28;20100;-74
2022/07/06 00:28:40;;;;;;;5.13;2.60;;;;;;;18.74;52.48;101041.78;4931397;28;20048;-75
2022/07/06 00:31:07;;;;;;;5.20;2.63;;;;;;;18.69;52.70;101041.28;4930474;29;20063;-71
2022/07/06 00:33:33;;;;;;;3.08;2.70;;;;;;;18.68;52.73;101042.25;4929174;28;20048;-73
2022/07/06 00:36:00;;;;;;;5.97;2.63;;;;;;;18.61;52.93;101044.47;4932266;28;20147;-75
2022/07/06 00:38:27;;;;;;;4.53;2.88;;;;;;;18.40;53.30;101017.31;4929521;28;20052;-74
2022/07/06 00:40:54;;;;;;;5.78;2.50;;;;;;;18.40;53.53;101009.28;4932473;28;20656;-74
2022/07/06 00:43:20;;;;;;;5.47;2.60;;;;;;;18.53;53.87;101039.63;4925519;28;20412;-75
2022/07/06 00:45:47;;;;;;;4.05;2.45;;;;;;;18.48;54.06;101044.44;4936879;28;20629;-75
2022/07/06 00:48:14;;;;;;;3.55;2.47;;;;;;;18.42;54.49;101036.81;4930787;28;20052;-71
2022/07/06 00:50:40;;;;;;;9.18;2.40;;;;;;;18.40;54.38;101035.25;4929999;28;20063;-76
2022/07/06 00:53:08;;;;;;;2.90;2.60;;;;;;;18.36;54.80;101029.22;4928147;29;20039;-75
2022/07/06 00:55:39;;;;;;;4.30;2.35;;;;;;;18.34;55.03;101041.00;4931039;28;20134;-74
2022/07/06 00:58:07;;;;;;;3.50;2.65;;;;;;;18.28;55.34;101030.69;4929748;28;20118;-75
2022/07/06 01:00:34;;;;;;;3.80;2.22;;;;;;;18.21;55.36;101031.13;4931805;28;20086;-75
2022/07/06 01:03:01;;;;;;;5.80;2.80;;;;;;;18.20;55.79;101034.78;4931876;28;20055;-74
2022/07/06 01:05:29;;;;;;;4.63;2.17;;;;;;;18.18;55.78;101041.19;4935831;28;20056;-76
2022/07/06 01:07:56;;;;;;;3.83;2.17;;;;;;;18.11;56.40;101034.53;4928879;29;20114;-73
2022/07/06 01:10:23;;;;;;;5.25;2.45;;;;;;;18.11;56.46;101040.75;4930077;28;20114;-76
2022/07/06 01:12:50;;;;;;;4.43;2.28;;;;;;;17.96;56.49;101020.34;4930584;28;20055;-73
2022/07/06 01:15:23;;;;;;;4.57;2.65;;;;;;;18.06;56.96;101039.38;4935494;28;20529;-72
2022/07/06 01:17:50;;;;;;;3.97;2.28;;;;;;;17.91;56.81;101009.09;4930090;28;20762;-73
2022/07/06 01:20:18;;;;;;;3.80;2.25;;;;;;;18.06;56.95;101042.03;4929522;28;20051;-74
2022/07/06 01:22:46;;;;;;;3.60;2.30;;;;;;;17.89;56.86;101008.34;4934662;28;20106;-75
2022/07/06 01:25:14;;;;;;;2.50;2.30;;;;;;;18.01;57.14;101030.78;4927783;28;20052;-76
2022/07/06 01:27:42;;;;;;;6.28;2.20;;;;;;;18.03;57.30;101045.78;4936442;28;20040;-72
2022/07/06 01:30:15;;;;;;;2.92;2.05;;;;;;;17.97;57.20;101031.94;4934789;28;20154;-75
2022/07/06 01:32:42;;;;;;;4.18;2.40;;;;;;;17.94;57.21;101027.66;4935075;28;20048;-74
2022/07/06 01:35:12;;;;;;;4.88;2.42;;;;;;;17.98;57.21;101036.34;4932720;28;20051;-73
2022/07/06 01:37:39;;;;;;;3.63;2.38;;;;;;;17.90;57.34;101026.16;4927742;28;20055;-74
2022/07/06 01:40:08;;;;;;;4.30;2.13;;;;;;;17.95;57.36;101047.25;4934416;28;20098;-75
2022/07/06 01:42:35;;;;;;;3.17;2.10;;;;;;;17.93;57.49;101044.69;4929626;28;20047;-74
2022/07/06 01:45:03;;;;;;;3.38;2.10;;;;;;;17.81;57.59;101024.94;4933023;28;20058;-75
2022/07/06 01:47:30;;;;;;;5.30;2.35;;;;;;;17.88;57.82;101038.78;4930058;28;20079;-74
2022/07/06 01:50:03;;;;;;;3.72;2.28;;;;;;;17.87;57.98;101040.59;4935461;28;20247;-75
2022/07/06 01:52:30;;;;;;;5.10;2.30;;;;;;;17.83;57.91;101040.91;4935624;28;20687;-73
2022/07/06 01:54:57;;;;;;;4.18;2.00;;;;;;;17.78;58.16;101037.69;4937155;28;20048;-73
2022/07/06 01:57:23;;;;;;;4.10;2.08;;;;;;;17.70;58.50;101024.78;4928413;28;20047;-74
2022/07/06 01:59:50;;;;;;;3.20;2.20;;;;;;;17.76;58.80;101032.44;4931931;28;20119;-73
2022/07/06 02:02:17;;;;;;;2.80;2.00;;;;;;;17.71;58.72;101031.00;4931719;28;20500;-72
2022/07/06 02:04:44;;;;;;;3.45;2.40;;;;;;;17.58;58.65;101014.00;4935592;28;20165;-72
2022/07/06 02:07:11;;;;;;;3.20;1.92;;;;;;;17.69;58.74;101041.81;4927172;28;20043;-75
2022/07/06 02:09:38;;;;;;;4.32;1.92;;;;;;;17.67;58.93;101033.03;4930315;28;20082;-75
2022/07/06 02:12:05;;;;;;;5.45;2.15;;;;;;;17.50;59.00;101004.66;4928699;28;20744;-72
2022/07/06 02:14:31;;;;;;;5.03;2.22;;;;;;;17.57;59.33;101028.34;4930889;28;20040;-74
2022/07/06 02:16:58;;;;;;;8.23;2.50;;;;;;;17.52;59.44;101034.00;4930161;29;20410;-74
2022/07/06 02:19:25;;;;;;;4.95;2.80;;;;;;;17.47;59.62;101046.84;4926220;29;20488;-74
2022/07/06 02:21:51;;;;;;;3.75;2.50;;;;;;;17.38;60.18;101045.63;4930462;28;20413;-75
2022/07/06 02:24:18;;;;;;;3.22;2.40;;;;;;;17.17;60.22;101029.13;4927650;28;20056;-75
2022/07/06 02:26:45;;;;;;;4.15;2.17;;;;;;;17.23;60.57;101043.94;4926851;29;20521;-74
2022/07/06 02:29:11;;;;;;;4.30;2.50;;;;;;;17.20;60.94;101046.81;4938625;29;20070;-75
2022/07/06 02:31:38;;;;;;;2.88;2.20;;;;;;;17.22;60.98;101050.25;4931301;28;20082;-75
2022/07/06 02:34:04;;;;;;;7.90;2.72;;;;;;;17.20;60.90;101046.81;4930376;28;20354;-74
2022/07/06 02:36:31;;;;;;;6.35;2.30;;;;;;;17.19;61.10;101047.75;4932132;28;20103;-75
2022/07/06 02:38:58;;;;;;;4.22;2.13;;;;;;;17.14;60.84;101048.06;4934097;28;20425;-73
2022/07/06 02:41:25;;;;;;;3.38;2.17;;;;;;;17.10;61.15;101043.88;4932120;28;20087;-75
2022/07/06 02:43:51;;;;;;;2.47;2.20;;;;;;;17.14;61.21;101050.75;4933977;28;20066;-76
2022/07/06 02:46:18;;;;;;;2.67;2.20;;;;;;;17.20;60.80;101041.44;4934720;28;20079;-74
2022/07/06 02:48:45;;;;;;;2.75;2.00;;;;;;;17.13;60.85;101042.81;4933804;28;20055;-73
2022/07/06 02:51:11;;;;;;;4.88;2.50;;;;;;;17.03;61.38;101039.84;4936129;28;20118;-73
2022/07/06 02:53:38;;;;;;;4.63;2.38;;;;;;;17.03;61.46;101049.69;4924931;28;20048;-74
2022/07/06 02:56:05;;;;;;;4.22;2.17;;;;;;;17.00;61.11;101053.41;4930301;28;20051;-74
2022/07/06 02:58:31;;;;;;;6.43;2.30;;;;;;;16.95;61.47;101042.16;4925664;28;20405;-74
2022/07/06 03:00:58;;;;;;;5.10;2.08;;;;;;;16.94;61.25;101035.09;4929506;28;20420;-73
2022/07/06 03:03:25;;;;;;;3.95;2.10;;;;;;;16.94;61.36;101044.94;4927392;28;20044;-75
2022/07/06 03:05:52;;;;;;;3.35;2.03;;;;;;;16.76;61.65;101042.47;4928950;28;20111;-75
2022/07/06 03:08:18;;;;;;;2.97;2.10;;;;;;;16.69;61.64;101042.91;4926111;28;20067;-75
2022/07/06 03:10:45;;;;;;;5.50;2.40;;;;;;;16.59;61.91;101044.41;4929902;28;20055;-73
2022/07/06 03:13:12;;;;;;;6.45;2.15;;;;;;;16.71;61.58;101062.41;4927671;29;20139;-73
2022/07/06 03:15:39;;;;;;;3.85;2.10;;;;;;;16.65;61.44;101050.28;4927969;28;20043;-72
2022/07/06 03:18:05;;;;;;;4.68;2.20;;;;;;;16.61;61.59;101050.53;4927128;29;20560;-75
2022/07/06 03:20:32;;;;;;;2.28;1.92;;;;;;;16.64;61.52;101059.28;4929052;28;20134;-73
2022/07/06 03:22:59;;;;;;;3.30;2.00;;;;;;;16.47;61.63;101044.22;4925105;28;20470;-73
2022/07/06 03:25:25;;;;;;;4.63;2.22;;;;;;;16.61;61.38;101067.44;4928210;28;20051;-75
2022/07/06 03:27:52;;;;;;;3.15;1.90;;;;;;;16.59;61.62;101074.69;4924132;28;20052;-74
2022/07/06 03:30:19;;;;;;;2.55;2.00;;;;;;;16.53;61.40;101061.69;4929569;28;20400;-75
2022/07/06 03:32:45;;;;;;;3.15;2.10;;;;;;;16.48;61.63;101064.66;4930364;28;20563;-74
2022/07/06 03:35:12;;;;;;;3.03;1.85;;;;;;;16.48;61.35;101070.00;4932114;28;20085;-73
2022/07/06 03:37:38;;;;;;;5.70;2.22;;;;;;;16.49;61.54;101074.41;4927036;28;20044;-72
2022/07/06 03:40:06;;;;;;;5.15;2.17;;;;;;;16.49;61.01;101077.09;4928432;28;20132;-75
2022/07/06 03:42:33;;;;;;;4.43;2.30;;;;;;;16.36;61.42;101060.06;4925124;28;21790;-73
2022/07/06 03:44:59;;;;;;;4.95;2.35;;;;;;;16.39;61.78;101083.06;4925611;28;20068;-75
2022/07/06 03:47:26;;;;;;;3.13;1.88;;;;;;;16.35;61.67;101079.72;4929425;28;20051;-74
2022/07/06 03:49:53;;;;;;;3.20;1.63;;;;;;;16.33;61.79;101086.97;4926286;28;20567;-75
2022/07/06 03:52:19;;;;;;;2.47;2.05;;;;;;;16.35;61.56;101090.41;4927143;28;20055;-74
2022/07/06 03:54:46;;;;;;;3.03;1.95;;;;;;;16.37;61.69;101090.34;4927528;29;20044;-73
2022/07/06 03:57:13;;;;;;;3.38;2.20;;;;;;;16.24;61.57;101067.94;4927454;28;20107;-73
2022/07/06 03:59:40;;;;;;;7.05;1.90;;;;;;;16.28;61.92;101077.50;4922455;29;20102;-73
2022/07/06 04:02:07;;;;;;;3.70;2.30;;;;;;;16.38;61.88;101095.56;4931155;28;20058;-72
2022/07/06 04:04:34;;;;;;;1.73;1.63;;;;;;;16.44;61.76;101103.22;4925383;28;20048;-76
2022/07/06 04:07:00;;;;;;;5.13;1.90;;;;;;;16.48;61.51;101093.22;4922966;29;20569;-74
2022/07/06 04:09:27;;;;;;;3.92;2.00;;;;;;;16.50;61.37;101104.69;4922522;28;20051;-73
2022/07/06 04:11:54;;;;;;;2.90;1.75;;;;;;;16.56;61.38;101103.41;4927044;28;20048;-74
2022/07/06 04:14:20;;;;;;;4.35;2.15;;;;;;;16.64;61.07;101099.38;4926648;28;20115;-74
2022/07/06 04:16:47;;;;;;;5.60;2.35;;;;;;;16.63;61.37;101094.13;4926130;29;20047;-76
2022/07/06 04:19:14;;;;;;;3.65;1.73;;;;;;;16.79;60.94;101106.47;4926950;28;20052;-76
2022/07/06 04:21:41;;;;;;;3.33;1.63;;;;;;;16.84;60.59;101106.19;4926929;28;20044;-76
2022/07/06 04:24:09;;;;;;;2.80;1.65;;;;;;;16.85;60.46;101107.88;4931240;28;20062;-74
2022/07/06 04:26:35;;;;;;;2.55;1.85;;;;;;;16.88;60.62;101120.22;4926408;28;20539;-73
2022/07/06 04:29:02;;;;;;;3.72;1.70;;;;;;;16.87;60.56;101114.00;4932283;28;20060;-72
2022/07/06 04:31:28;;;;;;;5.05;2.22;;;;;;;16.74;60.22;101097.00;4927648;29;20511;-76
2022/07/06 04:33:55;;;;;;;4.35;1.85;;;;;;;16.75;60.57;101096.03;4927646;28;20134;-76
2022/07/06 04:36:22;;;;;;;3.90;1.70;;;;;;;16.82;60.79;101111.63;4927874;28;20572;-75
2022/07/06 04:38:48;;;;;;;3.40;1.90;;;;;;;16.86;60.83;101122.13;4918771;29;20067;-74
2022/07/06 04:41:15;;;;;;;5.30;2.58;;;;;;;16.83;60.75;101109.81;4929409;28;20060;-74
2022/07/06 04:43:43;;;;;;;3.33;2.30;;;;;;;16.78;61.05;101107.41;4922063;28;20532;-75
2022/07/06 04:46:10;;;;;;;5.88;2.30;;;;;;;16.80;61.82;101118.88;4929659;28;20522;-74
2022/07/06 04:48:39;;;;;;;3.50;2.25;;;;;;;16.76;61.83;101113.81;4932032;28;20150;-74
2022/07/06 04:51:06;;;;;;;5.13;2.20;;;;;;;16.83;61.48;101123.19;4929992;28;20064;-75
2022/07/06 04:53:32;;;;;;;6.75;2.25;;;;;;;16.81;61.64;101127.78;4925540;28;20051;-72
2022/07/06 04:55:59;;;;;;;6.35;2.28;;;;;;;16.84;61.95;101133.78;4928882;28;20500;-74
2022/07/06 04:58:25;;;;;;;3.67;2.55;;;;;;;16.83;61.73;101123.19;4923948;28;20044;-72
2022/07/06 05:00:55;;;;;;;3.72;2.40;;;;;;;16.89;61.36;101117.44;4926273;29;20048;-74
2022/07/06 05:03:22;;;;;;;8.00;2.53;;;;;;;17.02;61.26;101125.56;4919854;29;20056;-74
2022/07/06 05:05:49;;;;;;;4.75;2.40;;;;;;;17.14;61.53;101127.50;4932006;28;20051;-74
2022/07/06 05:08:20;;;;;;;3.95;2.70;;;;;;;17.16;60.68;101131.78;4916793;28;20080;-76
2022/07/06 05:10:48;;;;;;;3.63;2.53;;;;;;;17.19;60.51;101136.94;4943465;28;20079;-74
2022/07/06 05:13:18;;;;;;;;;;;;;;;17.23;60.67;101134.94;4935466;28;20060;-74
2022/07/06 05:15:44;;;;;;;3.58;2.42;;;;;;;17.27;61.29;101136.47;4931909;28;19955;-73
2022/07/06 05:18:11;;;;;;;5.78;2.70;;;;;;;17.43;60.36;101139.03;4931355;28;20087;-75
2022/07/06 05:20:38;;;;;;;4.95;2.60;;;;;;;17.53;60.02;101137.50;4931984;28;20130;-73
2022/07/06 05:23:05;;;;;;;4.45;2.67;;;;;;;17.63;59.95;101141.28;4927869;28;20519;-74
2022/07/06 05:25:32;;;;;;;5.45;2.67;;;;;;;17.70;59.30;101139.97;4933179;29;20058;-75
2022/07/06 05:27:59;;;;;;;4.70;2.60;;;;;;;17.76;59.22;101130.69;4921916;29;20055;-73
2022/07/06 05:30:26;;;;;;;7.65;3.00;;;;;;;17.83;58.51;101138.22;4931566;28;20090;-74
2022/07/06 05:32:53;;;;;;;4.25;2.70;;;;;;;17.82;58.90;101141.84;4927022;28;20043;-75
2022/07/06 05:35:19;;;;;;;4.57;2.75;;;;;;;17.90;58.16;101132.47;4935232;28;20063;-74
2022/07/06 05:38:06;;;;;;;8.13;2.63;;;;;;;17.91;58.71;101142.22;4921130;29;20088;-74
2022/07/06 05:40:33;;;;;;;4.25;2.35;;;;;;;17.96;58.68;101140.06;4930675;28;20070;-73
2022/07/06 05:43:00;;;;;;;4.45;2.95;;;;;;;18.10;58.23;101135.53;4925054;28;20438;-76
2022/07/06 05:45:26;;;;;;;4.97;2.90;;;;;;;18.15;56.94;101121.81;4931575;28;20523;-74
2022/07/06 05:50:38;;;;;;;4.82;3.00;;;;;;;18.33;56.12;101117.06;4920739;28;20744;-74
2022/07/06 05:53:06;;;;;;;6.25;3.00;;;;;;;18.40;56.31;101135.31;4920816;28;20044;-74
2022/07/06 05:55:42;;;;;;;7.32;3.10;;;;;;;18.43;56.79;101142.25;4919686;28;20157;-76
2022/07/06 05:58:09;;;;;;;4.70;3.33;;;;;;;18.40;57.35;101132.63;4928449;28;20492;-73
2022/07/06 06:00:36;;;;;;;6.93;3.13;;;;;;;18.31;57.00;101145.78;4928026;28;20051;-73
2022/07/06 06:03:02;;;;;;;7.28;3.22;;;;;;;18.21;57.58;101151.78;4919602;29;20059;-75
2022/07/06 06:05:29;;;;;;;5.25;3.28;;;;;;;18.07;58.16;101150.97;4916842;28;20048;-75
2022/07/06 06:07:56;;;;;;;5.95;2.90;;;;;;;18.13;57.79;101155.91;4925086;29;20066;-74
2022/07/06 06:10:23;;;;;;;7.03;3.30;;;;;;;18.02;57.47;101142.38;4919236;28;20484;-72
2022/07/06 06:12:50;;;;;;;5.00;3.17;;;;;;;18.13;57.67;101172.00;4923461;28;20119;-71
2022/07/06 06:15:17;;;;;;;8.75;3.22;;;;;;;18.08;57.43;101160.72;4924959;28;20047;-72
2022/07/06 06:17:44;;;;;;;6.10;3.15;;;;;;;18.10;58.08;101164.19;4922326;28;20048;-72
2022/07/06 06:20:13;;;;;;;6.03;3.30;;;;;;;18.13;58.16;101150.53;4921350;28;20162;-72
2022/07/06 06:22:51;;;;;;;7.35;3.00;;;;;;;18.51;57.39;101164.94;4921993;28;20050;-73
2022/07/06 06:25:21;;;;;;;5.63;3.03;;;;;;;18.79;55.71;101160.38;4918779;29;20082;-73
2022/07/06 06:27:48;;;;;;;6.18;3.10;;;;;;;18.90;55.60;101161.34;4926874;28;20056;-74
2022/07/06 06:30:15;;;;;;;4.40;2.97;;;;;;;19.06;54.85;101157.59;4928350;28;20488;-74
2022/07/06 06:32:41;;;;;;;5.93;3.15;;;;;;;19.10;54.57;101159.09;4930966;28;20056;-74
2022/07/06 06:35:08;;;;;;;4.65;3.10;;;;;;;19.39;54.51;101167.78;4928217;28;20072;-74
2022/07/06 06:37:35;;;;;;;6.70;3.00;;;;;;;19.63;52.96;101160.69;4927528;28;20055;-72
2022/07/06 06:40:03;;;;;;;8.48;2.83;;;;;;;19.75;53.08;101156.25;4928115;28;20090;-75
2022/07/06 06:42:30;;;;;;;6.45;3.50;;;;;;;19.71;52.12;101162.81;4928191;28;20064;-74
2022/07/06 06:44:57;;;;;;;4.70;3.15;;;;;;;19.64;52.80;101164.25;4923889;28;20127;-76
2022/07/06 06:47:24;;;;;;;6.75;3.47;;;;;;;19.64;52.93;101167.78;4924751;28;20052;-73
2022/07/06 06:49:50;;;;;;;5.03;3.08;;;;;;;19.58;52.65;101168.22;4921395;28;20048;-74
2022/07/06 06:52:17;;;;;;;3.80;2.92;;;;;;;19.50;52.95;101173.31;4917696;28;20067;-73
2022/07/06 06:55:04;;;;;;;5.20;2.60;;;;;;;19.52;53.07;101176.72;4923707;28;20400;-73
2022/07/06 06:57:31;;;;;;;6.32;2.95;;;;;;;19.47;53.25;101177.03;4917780;29;20404;-74
2022/07/06 06:59:57;;;;;;;4.60;3.08;;;;;;;19.33;53.67;101176.28;4923331;28;20102;-75
2022/07/06 07:02:24;;;;;;;5.30;3.30;;;;;;;19.20;54.64;101179.81;4918886;28;22848;-74
2022/07/06 07:04:51;;;;;;;6.78;3.70;;;;;;;19.14;54.05;101177.59;4924627;28;20058;-72
2022/07/06 07:07:18;;;;;;;6.68;2.83;;;;;;;19.12;54.77;101174.16;4927899;28;20058;-75
2022/07/06 07:09:44;;;;;;;7.43;3.15;;;;;;;19.16;54.45;101167.59;4931685;28;20063;-74
2022/07/06 07:12:11;;;;;;;6.60;3.15;;;;;;;19.24;53.83;101159.84;4929284;28;20065;-71
2022/07/06 07:14:38;;;;;;;4.35;3.55;;;;;;;19.40;53.61;101188.31;4934241;28;20475;-74
2022/07/06 07:17:05;;;;;;;4.25;2.97;;;;;;;19.27;53.97;101172.22;4936699;28;20066;-73
2022/07/06 07:19:31;;;;;;;4.38;2.63;;;;;;;19.29;53.86;101186.38;4929066;28;20710;-74
2022/07/06 07:21:58;;;;;;;7.38;3.30;;;;;;;19.19;53.60;101190.69;4924607;28;20058;-73
2022/07/06 07:24:25;;;;;;;4.38;3.30;;;;;;;19.13;54.04;101191.97;4921440;28;20086;-73
2022/07/06 07:26:51;;;;;;;8.43;2.97;;;;;;;19.26;54.00;101189.28;4934650;28;20042;-75
2022/07/06 07:29:18;;;;;;;4.00;3.17;;;;;;;19.39;53.43;101181.22;4928007;28;20059;-73
2022/07/06 07:31:44;;;;;;;5.43;2.90;;;;;;;19.61;53.53;101186.81;4925499;28;20082;-75
2022/07/06 07:34:11;;;;;;;5.25;2.75;;;;;;;19.66;52.46;101195.41;4926407;28;20079;-74
2022/07/06 07:36:38;;;;;;;4.40;2.78;;;;;;;19.68;51.38;101177.31;4920109;28;20449;-74
2022/07/06 07:39:04;;;;;;;4.63;2.75;;;;;;;19.85;51.37;101184.16;4925603;28;20059;-74
2022/07/06 07:41:31;;;;;;;4.22;2.67;;;;;;;19.86;50.18;101175.13;4925024;28;20074;-75
2022/07/06 07:43:58;;;;;;;6.90;2.30;;;;;;;19.85;49.45;101178.78;4935975;28;20059;-74
2022/07/06 07:46:25;;;;;;;3.60;2.25;;;;;;;19.75;49.38;101146.34;4928120;28;20091;-75
2022/07/06 07:48:53;;;;;;;4.88;2.45;;;;;;;20.03;48.64;101173.88;4929923;28;20063;-75
2022/07/06 07:51:19;;;;;;;3.47;2.38;;;;;;;20.11;48.36;101174.19;4923570;28;20059;-73
2022/07/06 07:53:46;;;;;;;4.78;2.13;;;;;;;20.04;47.34;101180.97;4925670;28;20123;-72
2022/07/06 07:56:13;;;;;;;5.43;2.58;;;;;;;19.83;48.54;101162.75;4926575;28;20054;-74
2022/07/06 07:58:39;;;;;;;3.65;2.33;;;;;;;19.61;48.16;101162.63;4924082;28;20082;-73
2022/07/06 08:01:06;;;;;;;3.63;2.53;;;;;;;19.68;48.74;101174.63;4926321;28;20460;-74
2022/07/06 08:03:33;;;;;;;4.03;2.60;;;;;;;19.61;48.27;101181.44;4919311;28;20047;-74
2022/07/06 08:05:59;;;;;;;3.97;2.60;;;;;;;19.53;48.72;101171.22;4921408;28;20047;-72
2022/07/06 08:08:26;;;;;;;3.88;2.72;;;;;;;19.52;48.77;101166.81;4918426;28;20055;-71
2022/07/06 08:10:53;;;;;;;6.00;2.70;;;;;;;19.63;48.92;101179.50;4935578;28;20152;-72
2022/07/06 08:13:40;;;;;;;7.72;3.17;;;;;;;19.70;48.52;101182.59;4928736;28;20115;-71
2022/07/06 08:16:08;;;;;;;4.25;2.78;;;;;;;19.65;48.93;101180.25;4931245;28;20048;-75
2022/07/06 08:18:35;;;;;;;5.20;2.92;;;;;;;19.61;48.72;101182.28;4929548;28;20547;-71
2022/07/06 08:21:05;;;;;;;4.18;3.10;;;;;;;19.67;48.70;101175.63;4922193;28;20055;-72
2022/07/06 08:23:50;;;;;;;3.20;2.90;;;;;;;19.67;47.95;101161.34;4921883;29;20806;-71
2022/07/06 08:26:17;;;;;;;7.30;3.25;;;;;;;19.82;47.76;101187.94;4931868;28;20051;-70
2022/07/06 08:28:44;;;;;;;4.18;3.45;;;;;;;19.86;47.91;101188.56;4927995;29;20051;-73
2022/07/06 08:31:11;;;;;;;3.88;3.17;;;;;;;19.98;46.77;101184.13;4927583;28;20131;-72
2022/07/06 08:33:59;;;;;;;7.75;3.10;;;;;;;20.22;46.64;101176.91;4925574;28;20044;-74
2022/07/06 08:36:25;;;;;;;6.75;2.70;;;;;;;20.40;46.60;101186.34;4933871;28;20055;-73
2022/07/06 08:38:52;;;;;;;5.15;3.00;;;;;;;20.41;46.25;101189.88;4933195;28;20055;-73
2022/07/06 08:41:22;;;;;;;6.47;3.22;;;;;;;20.26;46.45;101184.66;4939772;28;20079;-73
2022/07/06 08:43:53;;;;;;;6.22;4.07;;;;;;;20.14;46.12;101196.34;4937005;28;20057;-73
2022/07/06 08:46:21;;;;;;;3.63;3.03;;;;;;;20.19;46.43;101190.59;4927069;28;20077;-73
2022/07/06 08:48:49;;;;;;;3.25;2.90;;;;;;;20.44;45.43;101184.28;4932609;28;20076;-74
2022/07/06 08:51:17;;;;;;;4.72;3.22;;;;;;;20.73;44.80;101192.81;4932389;28;20044;-72
2022/07/06 08:53:48;;;;;;;7.13;3.33;;;;;;;20.83;44.99;101185.75;4929536;28;20056;-74
2022/07/06 08:56:16;;;;;;;7.97;3.90;;;;;;;20.92;44.64;101187.75;4934826;28;20617;-74
2022/07/06 08:58:43;;;;;;;5.15;3.00;;;;;;;20.74;45.74;101195.41;4933507;28;20095;-74
2022/07/06 09:01:10;;;;;;;4.65;2.85;;;;;;;20.76;46.10;101180.00;4932489;28;20516;-74
2022/07/06 09:03:40;;;;;;;5.00;3.30;;;;;;;20.98;45.33;101177.31;4926052;29;20570;-74
2022/07/06 09:06:08;;;;;;;6.45;3.53;;;;;;;21.01;44.76;101195.94;4928456;29;20202;-73
2022/07/06 09:08:36;;;;;;;8.18;4.13;;;;;;;20.97;44.93;101194.47;4932050;28;20137;-75
2022/07/06 09:11:03;;;;;;;6.65;3.60;;;;;;;20.80;45.79;101186.84;4927685;28;20131;-72
2022/07/06 09:13:30;;;;;;;5.53;3.05;;;;;;;20.63;46.11;101196.19;4924555;28;20463;-73
2022/07/06 09:16:12;;;;;;;6.53;3.17;;;;;;;20.63;45.48;101196.19;4928613;28;20044;-74
2022/07/06 09:18:59;;;;;;;7.95;3.30;;;;;;;20.80;44.96;101183.28;4924454;29;20059;-73
2022/07/06 09:21:31;;;;;;;6.18;3.50;;;;;;;20.63;44.71;101204.28;4923946;29;20511;-74
2022/07/06 09:24:00;;;;;;;6.97;3.35;;;;;;;20.97;44.69;101196.28;4922827;29;20059;-73
2022/07/06 09:26:27;;;;;;;5.18;2.80;;;;;;;21.42;43.68;101177.50;4923231;28;20047;-72
2022/07/06 09:28:55;;;;;;;5.80;2.95;;;;;;;21.85;42.13;101189.25;4925093;28;20056;-75
2022/07/06 09:31:22;;;;;;;3.15;2.83;;;;;;;21.76;42.17;101190.00;4930009;28;20070;-74
2022/07/06 09:34:05;;;;;;;5.18;2.70;;;;;;;21.57;43.29;101189.75;4924016;28;20084;-75
2022/07/06 09:36:46;;;;;;;5.10;3.33;;;;;;;21.36;43.04;101189.66;4922066;28;20481;-73
2022/07/06 09:39:23;;;;;;;4.90;3.20;;;;;;;21.26;41.94;101181.44;4924046;28;20480;-73
2022/07/06 09:41:51;;;;;;;4.85;2.88;;;;;;;21.40;41.69;101166.03;4928827;28;20119;-71
2022/07/06 09:44:21;;;;;;;6.50;2.97;;;;;;;21.63;41.82;101186.59;4929615;28;20060;-75
2022/07/06 09:46:48;;;;;;;7.10;3.67;;;;;;;21.60;41.20;101181.44;4919615;28;20060;-74
2022/07/06 09:49:22;;;;;;;4.65;2.92;;;;;;;22.00;39.90;101179.94;4926558;28;20048;-71
2022/07/06 09:51:51;;;;;;;5.57;2.95;;;;;;;22.47;38.29;101180.53;4928337;28;20051;-74
2022/07/06 09:54:18;;;;;;;4.47;2.15;;;;;;;22.86;38.25;101180.81;4925525;28;20044;-72
2022/07/06 09:56:53;;;;;;;5.57;2.53;;;;;;;23.04;37.61;101181.94;4922806;28;20067;-73
2022/07/06 09:59:24;;;;;;;4.57;2.90;;;;;;;22.40;38.31;101185.56;4926950;29;20063;-73
2022/07/06 10:01:57;;;;;;;6.25;2.92;;;;;;;22.50;37.63;101179.41;4937515;28;20058;-73
2022/07/06 10:04:25;;;;;;;5.43;2.40;;;;;;;22.77;37.19;101185.19;4925046;28;20158;-75
2022/07/06 10:06:53;;;;;;;3.90;2.22;;;;;;;22.99;37.14;101184.19;4930440;28;20044;-72
2022/07/06 10:09:22;;;;;;;4.03;2.40;;;;;;;22.48;36.75;101187.63;4926947;28;20083;-75
2022/07/06 10:11:51;;;;;;;4.38;2.30;;;;;;;21.84;37.99;101179.47;4924963;28;20047;-72
2022/07/06 10:14:23;;;;;;;3.95;2.10;;;;;;;21.77;38.49;101178.22;4929610;28;20060;-74
2022/07/06 10:16:51;;;;;;;3.70;2.55;;;;;;;21.72;38.32;101172.38;4925606;28;20428;-74
2022/07/06 10:19:19;;;;;;;3.10;2.40;;;;;;;21.67;39.95;101185.34;4921687;28;20460;-71
2022/07/06 10:21:46;;;;;;;6.00;3.10;;;;;;;21.72;39.95;101167.00;4923005;29;20082;-74
2022/07/06 10:24:14;;;;;;;4.18;2.58;;;;;;;21.80;40.70;101172.59;4920095;29;20055;-74
2022/07/06 10:26:42;;;;;;;3.88;2.60;;;;;;;21.97;39.57;101171.22;4919790;28;21790;-75
2022/07/06 10:29:08;;;;;;;7.72;2.78;;;;;;;21.82;38.77;101172.47;4918749;28;20083;-72
2022/07/06 10:31:39;;;;;;;3.03;2.42;;;;;;;21.58;39.35;101162.69;4916943;29;20098;-75
2022/07/06 10:34:09;;;;;;;3.63;2.40;;;;;;;21.43;39.56;101160.38;4922104;28;20085;-74
2022/07/06 10:36:40;;;;;;;5.70;2.10;;;;;;;21.49;39.48;101170.66;4919402;29;20154;-75
2022/07/06 10:41:53;;;;;;;6.70;2.30;;;;;;;21.72;40.14;101160.72;4918817;29;20697;-72
2022/07/06 10:44:22;;;;;;;4.07;2.20;;;;;;;21.98;38.56;101157.59;4914021;28;20059;-73
2022/07/06 10:46:52;;;;;;;6.70;3.08;;;;;;;22.20;38.41;101170.19;4921394;28;22531;-73
2022/07/06 10:49:19;;;;;;;5.80;3.10;;;;;;;22.08;38.46;101159.56;4920716;28;20102;-73
2022/07/06 10:52:06;;;;;;;5.03;2.83;;;;;;;22.03;38.74;101166.22;4918741;28;20064;-74
2022/07/06 10:54:39;;;;;;;4.80;2.92;;;;;;;21.94;37.93;101164.22;4921305;28;20493;-75
2022/07/06 10:57:10;;;;;;;4.45;2.45;;;;;;;21.98;38.03;101172.94;4918818;28;20056;-72
2022/07/06 10:59:36;;;;;;;5.90;2.88;;;;;;;21.75;37.24;101149.69;4923097;28;20075;-75
2022/07/06 11:02:17;;;;;;;4.55;2.40;;;;;;;21.92;37.93;101160.78;4923862;28;20609;-73
2022/07/06 11:04:49;;;;;;;2.95;2.17;;;;;;;22.13;37.03;101154.66;4923892;28;20134;-74
2022/07/06 11:07:18;;;;;;;3.85;2.35;;;;;;;22.41;37.62;101159.44;4913531;29;20277;-74
2022/07/06 11:09:55;;;;;;;3.78;2.70;;;;;;;22.87;37.24;101158.22;4919135;29;20044;-73
2022/07/06 11:12:22;;;;;;;2.33;2.08;;;;;;;23.22;36.01;101150.63;4918304;28;20500;-75
2022/07/06 11:14:51;;;;;;;3.08;1.98;;;;;;;23.60;34.66;101154.50;4929151;29;20087;-74
2022/07/06 11:17:18;;;;;;;6.32;2.00;;;;;;;23.76;35.20;101153.00;4915261;29;20397;-74
2022/07/06 11:19:57;;;;;;;4.32;2.42;;;;;;;23.75;33.29;101154.00;4918807;28;20095;-73
2022/07/06 11:22:26;;;;;;;2.80;2.10;;;;;;;23.65;33.51;101142.28;4921392;28;20071;-72
2022/07/06 11:24:53;;;;;;;5.38;2.63;;;;;;;23.72;33.70;101164.22;4918346;28;20071;-73
2022/07/06 11:27:23;;;;;;;3.25;2.53;;;;;;;23.30;33.61;101142.69;4916128;28;20074;-73
2022/07/06 11:29:49;;;;;;;2.75;2.10;;;;;;;23.30;34.56;101158.03;4921477;29;20058;-73
2022/07/06 11:32:24;;;;;;;3.80;2.28;;;;;;;23.29;34.10;101157.22;4921647;28;20075;-73
2022/07/06 11:34:51;;;;;;;3.00;1.92;;;;;;;23.46;33.86;101152.97;4923530;28;20075;-75